Fort Wayne International Airport Fort Wayne US
ICAO: KFWA
IATA: FWA
Category: Large
Scheduled Services: Yes

Elevation: 814 ft
TransAlt. 18000 ft.

Airport Communications:
APP/DEP:127.2
ATIS:121.25
CLNC DEL:124.75
GND:121.9
122FW COMD POST OPS:138.4
TERRE HAUTE RDO:122.2
TWR:119.1
UNICOM:122.95

KFWA Zoom In..

If Map Doesn't Load, Click Here

Runways:

(A) RW 05 length 11981 ft width 150 ft
ILS 111.90 / hdg 47

(B) RW 09 length 4001 ft width 75 ft
---- / hdg 93

(C) RW 14 length 8002 ft width 150 ft
---- / hdg 138

(D) RW 23 length 11981 ft width 150 ft
---- / hdg 227

(E) RW 27 length 4001 ft width 75 ft
---- / hdg 273

(F) RW 32 length 8002 ft width 150 ft
ILS 109.90 / hdg 318

Location; KFWA
Day. 21 / Time. 13.54 Zulu
* Altimeter: 29.92
* Temperature: 27° c. 80.6°f.
* Wind from: 240° Speed 16 kn with Gusts up to 26 kn.
Dewpoint: 20° c.
Visibility: 10 Statute Miles.
Clouds: Few 5500 ft.
Clouds: Scattered 14000 ft.
Clouds: Scattered 25000 ft.

KFWA 211354Z 24016G26KT 10SM FEW055 SCT140 SCT250 27/20 A2992 RMK AO2 PK WND 21026/1321 SLP123 T02720200


Wind From 240°
Speed 16 kn.

 
 
jpsmedia.com for Web Design worldairports.se 2018   terms of use